Terminal Aerodrome Forecast
Issued by NWS Jackson, MS

Home | Current Version | Previous Version | Text Only | Print | Product List | Glossary On
Versions: 1 2 3 4 5 6 7 8 9 10 11 12 13
000
FTUS44 KJAN 241120
TAFHBG
TAF
KHBG 241120Z 2412/2512 13003KT 6SM BR OVC004
     FM241400 14010KT P6SM VCSH OVC015
     FM241600 15015G22KT P6SM VCSH BKN025
     FM241800 15016G23KT P6SM VCTS SCT035CB BKN100
     FM250000 15009KT P6SM SCT035 OVC100
     FM250400 14007KT P6SM BKN025
     FM250600 15006KT P6SM OVC015
     FM250700 14005KT 4SM BR OVC007=

USA.gov is the U.S. government's official web portal to all federal, state and local government web resources and services.